createdAt,value
2023-04-01T00:00:29.865Z,6.000000
2023-04-01T00:05:32.470Z,6.000000
2023-04-01T00:10:34.147Z,6.000000
2023-04-01T00:15:16.079Z,6.000000
2023-04-01T00:20:18.433Z,6.266667
2023-04-01T00:25:21.103Z,7.000000
2023-04-01T00:30:23.023Z,6.785714
2023-04-01T00:35:25.139Z,6.000000
2023-04-01T00:40:27.189Z,6.000000
2023-04-01T00:45:29.331Z,6.000000
2023-04-01T00:50:31.377Z,6.000000
2023-04-01T00:55:33.992Z,6.000000
2023-04-01T01:00:15.914Z,6.000000
2023-04-01T01:05:17.816Z,6.000000
2023-04-01T01:10:19.877Z,6.000000
2023-04-01T01:15:21.884Z,6.000000
2023-04-01T01:20:26.369Z,6.428571
2023-04-01T01:25:26.158Z,8.000000
2023-04-01T01:30:28.134Z,7.800000
2023-04-01T01:35:30.526Z,7.000000
2023-04-01T01:40:32.124Z,7.266667
2023-04-01T01:45:34.428Z,8.000000
2023-04-01T01:50:16.380Z,7.733333
2023-04-01T01:55:18.486Z,7.000000
2023-04-01T02:00:20.810Z,7.533333
2023-04-01T02:05:22.840Z,9.000000
2023-04-01T02:10:25.743Z,8.600000
2023-04-01T02:15:28.469Z,7.000000
2023-04-01T02:20:30.498Z,7.000000
2023-04-01T02:25:32.700Z,7.000000
2023-04-01T02:30:34.483Z,7.800000
2023-04-01T02:35:16.401Z,10.000000
2023-04-01T02:40:18.784Z,9.733333
2023-04-01T02:45:20.886Z,9.000000
2023-04-01T02:50:23.150Z,8.785714
2023-04-01T02:55:30.715Z,8.000000
2023-04-01T03:00:32.807Z,8.266667
2023-04-01T03:05:15.996Z,9.000000
2023-04-01T03:10:18.402Z,264.000000
2023-04-01T03:15:21.117Z,774.000000
2023-04-01T03:20:24.081Z,675.214286
2023-04-01T03:25:26.174Z,313.000000
2023-04-01T03:30:28.550Z,243.133333
2023-04-01T03:35:30.677Z,51.000000
2023-04-01T03:40:33.068Z,147.000000
2023-04-01T03:45:35.397Z,411.000000
2023-04-01T03:50:17.130Z,350.733333
2023-04-01T03:55:19.521Z,185.000000
2023-04-01T04:00:21.675Z,149.000000
2023-04-01T04:05:24.923Z,50.000000
2023-04-01T04:10:27.215Z,43.800000
2023-04-01T04:15:30.248Z,19.000000
2023-04-01T04:20:32.675Z,31.800000
2023-04-01T04:25:35.994Z,67.000000
2023-04-01T04:30:31.164Z,71.533333
2023-04-01T04:35:21.832Z,84.000000
2023-04-01T04:40:25.345Z,77.571429
2023-04-01T04:45:40.948Z,54.000000
2023-04-01T04:50:31.917Z,54.000000
2023-04-01T04:55:34.839Z,54.000000
2023-04-01T05:00:17.818Z,63.066667
2023-04-01T05:05:21.175Z,88.000000
2023-04-01T05:10:24.982Z,72.357143
2023-04-01T05:15:27.756Z,15.000000
2023-04-01T05:20:30.610Z,84.600000
2023-04-01T05:25:34.140Z,276.000000
2023-04-01T05:30:35.807Z,232.800000
2023-04-01T05:35:18.249Z,114.000000
2023-04-01T05:40:33.416Z,86.533333
2023-04-01T05:45:24.518Z,11.000000
2023-04-01T05:50:39.946Z,26.800000
2023-04-01T05:55:30.479Z,90.000000
2023-04-01T06:00:34.633Z,101.733333
2023-04-01T06:05:18.000Z,134.000000
2023-04-01T06:10:21.417Z,121.466667
2023-04-01T06:15:24.457Z,87.000000
2023-04-01T06:20:26.871Z,77.800000
2023-04-01T06:25:29.147Z,41.000000
2023-04-01T06:30:31.915Z,48.466667
2023-04-01T06:35:34.568Z,69.000000
2023-04-01T06:40:15.787Z,63.133333
2023-04-01T06:45:19.033Z,47.000000
2023-04-01T06:50:20.527Z,44.333333
2023-04-01T06:55:22.924Z,37.000000
2023-04-01T07:00:24.715Z,33.000000
2023-04-01T07:05:28.023Z,17.000000
2023-04-01T07:10:31.371Z,15.133333
2023-04-01T07:15:26.584Z,10.000000
2023-04-01T07:20:19.179Z,13.200000
2023-04-01T07:25:22.357Z,22.000000
2023-04-01T07:30:26.124Z,23.200000
2023-04-01T07:35:28.517Z,28.000000
2023-04-01T07:40:31.854Z,27.200000
2023-04-01T07:45:34.706Z,25.000000
2023-04-01T07:50:16.418Z,38.333333
2023-04-01T07:55:18.582Z,75.000000
2023-04-01T08:00:20.749Z,118.733333
2023-04-01T08:05:22.765Z,239.000000
2023-04-01T08:10:25.125Z,338.800000
2023-04-01T08:15:27.195Z,738.000000
2023-04-01T08:20:29.441Z,566.266667
2023-04-01T08:25:31.633Z,94.000000
2023-04-01T08:30:33.598Z,75.600000
2023-04-01T08:35:38.267Z,25.000000
2023-04-01T08:40:17.681Z,25.533333
2023-04-01T08:45:19.842Z,27.000000
2023-04-01T08:50:22.318Z,139.071429
2023-04-01T08:55:24.494Z,550.000000
2023-04-01T09:00:26.872Z,451.000000
2023-04-01T09:05:28.889Z,55.000000
2023-04-01T09:10:31.166Z,55.800000
2023-04-01T09:15:33.529Z,58.000000
2023-04-01T09:20:35.360Z,45.466667
2023-04-01T09:25:17.153Z,11.000000
2023-04-01T09:30:19.718Z,27.266667
2023-04-01T09:35:21.522Z,72.000000
2023-04-01T09:40:23.605Z,75.000000
2023-04-01T09:45:25.769Z,86.000000
2023-04-01T09:50:27.922Z,71.200000
2023-04-01T09:55:30.110Z,12.000000
2023-04-01T10:00:32.442Z,21.066667
2023-04-01T10:05:34.601Z,46.000000
2023-04-01T10:10:16.382Z,38.266667
2023-04-01T10:15:18.445Z,17.000000
2023-04-01T10:20:20.509Z,28.733333
2023-04-01T10:25:22.424Z,61.000000
2023-04-01T10:30:24.478Z,50.800000
2023-04-01T10:35:26.772Z,10.000000
2023-04-01T10:40:28.816Z,8.133333
2023-04-01T10:45:31.009Z,3.000000
2023-04-01T10:50:33.134Z,7.800000
2023-04-01T10:55:35.493Z,21.000000
2023-04-01T11:00:17.107Z,17.533333
2023-04-01T11:05:20.896Z,8.000000
2023-04-01T11:10:21.433Z,8.800000
2023-04-01T11:15:23.493Z,11.000000
2023-04-01T11:20:25.476Z,10.800000
2023-04-01T11:25:27.730Z,10.000000
2023-04-01T11:30:29.612Z,10.000000
2023-04-01T11:35:32.039Z,10.000000
2023-04-01T11:40:33.973Z,28.400000
2023-04-01T11:45:16.174Z,79.000000
2023-04-01T11:50:18.081Z,67.266667
2023-04-01T11:55:20.210Z,35.000000
2023-04-01T12:00:22.565Z,32.000000
2023-04-01T12:05:24.398Z,21.000000
2023-04-01T12:10:26.509Z,56.400000
2023-04-01T12:15:28.459Z,198.000000
2023-04-01T12:20:30.454Z,150.266667
2023-04-01T12:25:32.808Z,19.000000
2023-04-01T12:30:34.560Z,15.533333
2023-04-01T12:35:16.550Z,6.000000
2023-04-01T12:40:18.740Z,6.800000
2023-04-01T12:45:21.096Z,9.000000
2023-04-01T12:50:23.427Z,56.357143
2023-04-01T12:55:25.256Z,230.000000
2023-04-01T13:00:27.325Z,187.000000
2023-04-01T13:05:29.706Z,15.000000
2023-04-01T13:10:31.607Z,213.400000
2023-04-01T13:15:33.495Z,759.000000
2023-04-01T13:20:35.759Z,568.866667
2023-04-01T13:25:17.403Z,46.000000
2023-04-01T13:30:19.505Z,51.866667
2023-04-01T13:35:21.694Z,68.000000
2023-04-01T13:40:23.561Z,90.500000
2023-04-01T13:45:25.565Z,173.000000
2023-04-01T13:50:27.739Z,140.400000
2023-04-01T13:55:29.941Z,10.000000
2023-04-01T14:00:32.160Z,17.200000
2023-04-01T14:05:43.054Z,37.000000
2023-04-01T14:10:15.736Z,39.666667
2023-04-01T14:15:17.810Z,47.000000
2023-04-01T14:20:19.767Z,62.466667
2023-04-01T14:25:21.758Z,105.000000
2023-04-01T14:30:23.976Z,90.428571
2023-04-01T14:35:25.786Z,37.000000
2023-04-01T14:40:27.695Z,30.600000
2023-04-01T14:45:29.705Z,5.000000
2023-04-01T14:50:31.774Z,7.666667
2023-04-01T14:55:34.254Z,15.000000
2023-04-01T15:00:16.206Z,13.666667
2023-04-01T15:05:18.608Z,10.000000
2023-04-01T15:10:21.075Z,39.333333
2023-04-01T15:15:23.294Z,120.000000
2023-04-01T15:20:27.285Z,181.600000
2023-04-01T15:25:27.789Z,428.000000
2023-04-01T15:30:29.688Z,316.533333
2023-04-01T15:35:32.049Z,10.000000
2023-04-01T15:40:34.144Z,10.533333
2023-04-01T15:45:15.866Z,12.000000
2023-04-01T15:50:18.109Z,65.066667
2023-04-01T15:55:20.550Z,211.000000
2023-04-01T16:00:22.614Z,172.428571
2023-04-01T16:05:24.736Z,31.000000
2023-04-01T16:10:27.037Z,26.200000
2023-04-01T16:15:29.126Z,7.000000
2023-04-01T16:20:31.321Z,7.000000
2023-04-01T16:25:33.229Z,7.000000
2023-04-01T16:30:35.870Z,7.266667
2023-04-01T16:35:17.924Z,8.000000
2023-04-01T16:40:20.507Z,7.733333
2023-04-01T16:45:22.524Z,7.000000
2023-04-01T16:50:24.722Z,7.000000
2023-04-01T16:55:26.933Z,7.000000
2023-04-01T17:00:29.473Z,8.333333
2023-04-01T17:05:32.089Z,12.000000
2023-04-01T17:10:35.029Z,10.400000
2023-04-01T17:15:16.221Z,6.000000
2023-04-01T17:20:18.527Z,6.266667
2023-04-01T17:25:20.506Z,7.000000
2023-04-01T17:30:22.593Z,6.785714
2023-04-01T17:35:24.798Z,6.000000
2023-04-01T17:40:26.713Z,6.200000
2023-04-01T17:45:28.704Z,7.000000
2023-04-01T17:50:30.634Z,17.133333
2023-04-01T17:55:32.677Z,45.000000
2023-04-01T18:00:46.148Z,35.133333
2023-04-01T18:05:16.494Z,8.000000
2023-04-01T18:10:18.464Z,7.466667
2023-04-01T18:15:20.600Z,6.000000
2023-04-01T18:20:22.648Z,13.285714
2023-04-01T18:25:24.757Z,40.000000
2023-04-01T18:30:26.867Z,34.600000
2023-04-01T18:35:28.864Z,13.000000
2023-04-01T18:40:30.799Z,11.933333
2023-04-01T18:45:32.895Z,9.000000
2023-04-01T18:50:35.494Z,8.466667
2023-04-01T18:55:16.625Z,7.000000
2023-04-01T19:00:18.687Z,7.800000
2023-04-01T19:05:20.985Z,10.000000
2023-04-01T19:10:23.344Z,9.785714
2023-04-01T19:15:25.430Z,9.000000
2023-04-01T19:20:27.243Z,8.800000
2023-04-01T19:25:29.300Z,8.000000
2023-04-01T19:30:31.668Z,7.466667
2023-04-01T19:35:33.535Z,6.000000
2023-04-01T19:40:35.904Z,7.866667
2023-04-01T19:45:17.430Z,13.000000
2023-04-01T19:50:19.428Z,12.200000
2023-04-01T19:55:21.512Z,10.000000
2023-04-01T20:00:23.596Z,9.571429
2023-04-01T20:05:25.874Z,8.000000
2023-04-01T20:10:27.691Z,8.000000
2023-04-01T20:15:29.931Z,8.000000
2023-04-01T20:20:31.899Z,7.733333
2023-04-01T20:25:34.282Z,7.000000
2023-04-01T20:30:15.990Z,7.000000
2023-04-01T20:35:18.092Z,7.000000
2023-04-01T20:40:20.080Z,6.733333
2023-04-01T20:45:22.339Z,6.000000
2023-04-01T20:50:24.283Z,6.600000
2023-04-01T20:55:26.413Z,9.000000
2023-04-01T21:00:28.696Z,10.066667
2023-04-01T21:05:30.743Z,13.000000
2023-04-01T21:10:32.944Z,11.400000
2023-04-01T21:15:35.251Z,7.000000
2023-04-01T21:20:16.903Z,7.000000
2023-04-01T21:25:19.008Z,7.000000
2023-04-01T21:30:21.107Z,8.066667
2023-04-01T21:35:23.534Z,11.000000
2023-04-01T21:40:25.403Z,10.000000
2023-04-01T21:45:27.487Z,6.000000
2023-04-01T21:50:29.664Z,6.800000
2023-04-01T21:55:31.920Z,9.000000
2023-04-01T22:00:34.046Z,8.733333
2023-04-01T22:05:15.855Z,8.000000
2023-04-01T22:10:18.018Z,8.000000
2023-04-01T22:15:20.273Z,8.000000
2023-04-01T22:20:22.577Z,7.571429
2023-04-01T22:25:24.422Z,6.000000
2023-04-01T22:30:26.420Z,6.200000
2023-04-01T22:35:28.600Z,7.000000
2023-04-01T22:40:30.572Z,7.000000
2023-04-01T22:45:33.103Z,7.000000
2023-04-01T22:50:34.810Z,6.733333
2023-04-01T22:55:16.820Z,6.000000
2023-04-01T23:00:18.703Z,6.000000
2023-04-01T23:05:21.003Z,6.000000
2023-04-01T23:10:23.037Z,6.000000
2023-04-01T23:15:25.090Z,6.000000
2023-04-01T23:20:27.468Z,6.200000
2023-04-01T23:25:29.697Z,7.000000
2023-04-01T23:30:31.789Z,7.266667
2023-04-01T23:35:34.490Z,8.000000
2023-04-01T23:40:16.273Z,7.466667
2023-04-01T23:45:18.570Z,6.000000
2023-04-01T23:50:20.869Z,7.066667
2023-04-01T23:55:22.805Z,10.000000
